Terminal Aerodrome Forecast
Issued by NWS

Home | Current Version | Previous Version | Text Only | Print | Product List | Glossary On
Versions: 1 2 3 4 5 6 7 8 9 10 11 12 13 14 15 16 17 18 19 20 21 22 23 24
000
FTUS43 KGLD 291728
TAFMCK
TAF
KMCK 291728Z 2918/3018 VRB06KT P6SM VCSH BKN100
      TEMPO 2918/2922 -TSRA SCT005 BKN050CB
     FM292200 13008KT P6SM -SHRA VCTS BKN040CB
     FM300400 VRB04KT P6SM VCSH SCT015 BKN035
     FM301000 VRB03KT 6SM BR SCT005 BKN015=

USA.gov is the U.S. government's official web portal to all federal, state and local government web resources and services.